sensor_id;sensor_type;location;lat;lon;timestamp;P1;durP1;ratioP1;P2;durP2;ratioP2
66628;SDS011;53532;53.084;6.352;2022-11-15T00:00:28;33.15;;;25.17;;
66628;SDS011;53532;53.084;6.352;2022-11-15T00:02:54;31.95;;;25.10;;
66628;SDS011;53532;53.084;6.352;2022-11-15T00:05:21;33.22;;;25.17;;
66628;SDS011;53532;53.084;6.352;2022-11-15T00:07:48;33.03;;;25.20;;
66628;SDS011;53532;53.084;6.352;2022-11-15T00:10:15;34.50;;;25.60;;
66628;SDS011;53532;53.084;6.352;2022-11-15T00:12:41;32.47;;;25.20;;
66628;SDS011;53532;53.084;6.352;2022-11-15T00:15:07;33.47;;;25.38;;
66628;SDS011;53532;53.084;6.352;2022-11-15T00:17:34;35.38;;;25.98;;
66628;SDS011;53532;53.084;6.352;2022-11-15T00:20:00;34.78;;;26.48;;
66628;SDS011;53532;53.084;6.352;2022-11-15T00:22:31;34.22;;;25.98;;
66628;SDS011;53532;53.084;6.352;2022-11-15T00:24:59;37.63;;;26.70;;
66628;SDS011;53532;53.084;6.352;2022-11-15T00:27:25;37.05;;;27.55;;
66628;SDS011;53532;53.084;6.352;2022-11-15T00:29:52;33.85;;;25.73;;
66628;SDS011;53532;53.084;6.352;2022-11-15T00:32:18;34.08;;;25.50;;
66628;SDS011;53532;53.084;6.352;2022-11-15T00:34:44;34.78;;;25.83;;
66628;SDS011;53532;53.084;6.352;2022-11-15T00:37:10;33.35;;;25.77;;
66628;SDS011;53532;53.084;6.352;2022-11-15T00:39:36;34.22;;;25.60;;
66628;SDS011;53532;53.084;6.352;2022-11-15T00:42:04;32.45;;;24.80;;
66628;SDS011;53532;53.084;6.352;2022-11-15T00:44:30;32.92;;;25.38;;
66628;SDS011;53532;53.084;6.352;2022-11-15T00:46:56;32.10;;;24.15;;
66628;SDS011;53532;53.084;6.352;2022-11-15T00:49:22;32.20;;;24.95;;
66628;SDS011;53532;53.084;6.352;2022-11-15T00:51:48;31.13;;;24.75;;
66628;SDS011;53532;53.084;6.352;2022-11-15T00:54:14;34.10;;;25.70;;
66628;SDS011;53532;53.084;6.352;2022-11-15T00:56:41;31.30;;;24.45;;
66628;SDS011;53532;53.084;6.352;2022-11-15T00:59:08;34.33;;;25.05;;
66628;SDS011;53532;53.084;6.352;2022-11-15T01:01:34;30.52;;;24.10;;
66628;SDS011;53532;53.084;6.352;2022-11-15T01:04:00;30.83;;;25.38;;
66628;SDS011;53532;53.084;6.352;2022-11-15T01:06:26;34.58;;;26.85;;
66628;SDS011;53532;53.084;6.352;2022-11-15T01:08:52;32.28;;;26.23;;
66628;SDS011;53532;53.084;6.352;2022-11-15T01:11:18;33.10;;;25.85;;
66628;SDS011;53532;53.084;6.352;2022-11-15T01:13:45;31.92;;;25.20;;
66628;SDS011;53532;53.084;6.352;2022-11-15T01:16:13;32.90;;;25.98;;
66628;SDS011;53532;53.084;6.352;2022-11-15T01:18:41;34.10;;;26.98;;
66628;SDS011;53532;53.084;6.352;2022-11-15T01:21:08;32.28;;;26.63;;
66628;SDS011;53532;53.084;6.352;2022-11-15T01:23:34;32.72;;;27.35;;
66628;SDS011;53532;53.084;6.352;2022-11-15T01:26:01;33.58;;;26.92;;
66628;SDS011;53532;53.084;6.352;2022-11-15T01:28:29;32.10;;;26.23;;
66628;SDS011;53532;53.084;6.352;2022-11-15T01:30:57;32.67;;;26.98;;
66628;SDS011;53532;53.084;6.352;2022-11-15T01:33:24;33.67;;;27.48;;
66628;SDS011;53532;53.084;6.352;2022-11-15T01:35:50;32.22;;;26.75;;
66628;SDS011;53532;53.084;6.352;2022-11-15T01:38:17;35.30;;;28.45;;
66628;SDS011;53532;53.084;6.352;2022-11-15T01:40:43;35.28;;;27.40;;
66628;SDS011;53532;53.084;6.352;2022-11-15T01:43:19;34.63;;;26.92;;
66628;SDS011;53532;53.084;6.352;2022-11-15T01:45:45;36.65;;;26.50;;
66628;SDS011;53532;53.084;6.352;2022-11-15T01:48:13;34.08;;;26.33;;
66628;SDS011;53532;53.084;6.352;2022-11-15T01:50:40;33.08;;;26.67;;
66628;SDS011;53532;53.084;6.352;2022-11-15T01:53:07;33.67;;;24.35;;
66628;SDS011;53532;53.084;6.352;2022-11-15T01:55:33;32.22;;;24.38;;
66628;SDS011;53532;53.084;6.352;2022-11-15T01:57:59;32.08;;;23.50;;
66628;SDS011;53532;53.084;6.352;2022-11-15T02:00:26;31.95;;;23.25;;
66628;SDS011;53532;53.084;6.352;2022-11-15T02:02:53;30.65;;;23.65;;
66628;SDS011;53532;53.084;6.352;2022-11-15T02:05:19;33.33;;;25.52;;
66628;SDS011;53532;53.084;6.352;2022-11-15T02:07:46;31.98;;;23.67;;
66628;SDS011;53532;53.084;6.352;2022-11-15T02:10:16;31.27;;;23.10;;
66628;SDS011;53532;53.084;6.352;2022-11-15T02:12:43;31.27;;;23.30;;
66628;SDS011;53532;53.084;6.352;2022-11-15T02:15:09;33.63;;;24.75;;
66628;SDS011;53532;53.084;6.352;2022-11-15T02:23:07;35.17;;;24.33;;
66628;SDS011;53532;53.084;6.352;2022-11-15T02:25:39;33.17;;;24.02;;
66628;SDS011;53532;53.084;6.352;2022-11-15T02:28:10;36.00;;;24.23;;
66628;SDS011;53532;53.084;6.352;2022-11-15T02:30:44;33.35;;;24.25;;
66628;SDS011;53532;53.084;6.352;2022-11-15T02:33:14;33.60;;;24.25;;
66628;SDS011;53532;53.084;6.352;2022-11-15T02:35:47;32.35;;;24.23;;
66628;SDS011;53532;53.084;6.352;2022-11-15T02:38:17;32.65;;;23.17;;
66628;SDS011;53532;53.084;6.352;2022-11-15T02:40:48;35.25;;;24.25;;
66628;SDS011;53532;53.084;6.352;2022-11-15T02:43:18;35.45;;;24.35;;
66628;SDS011;53532;53.084;6.352;2022-11-15T02:46:06;37.33;;;24.73;;
66628;SDS011;53532;53.084;6.352;2022-11-15T02:48:33;38.05;;;24.77;;
66628;SDS011;53532;53.084;6.352;2022-11-15T02:51:00;37.47;;;24.85;;
66628;SDS011;53532;53.084;6.352;2022-11-15T02:53:27;39.40;;;26.73;;
66628;SDS011;53532;53.084;6.352;2022-11-15T02:55:53;36.60;;;24.67;;
66628;SDS011;53532;53.084;6.352;2022-11-15T03:01:09;38.42;;;25.20;;
66628;SDS011;53532;53.084;6.352;2022-11-15T03:03:43;41.15;;;25.75;;
66628;SDS011;53532;53.084;6.352;2022-11-15T03:06:15;39.40;;;25.77;;
66628;SDS011;53532;53.084;6.352;2022-11-15T03:08:45;37.40;;;25.13;;
66628;SDS011;53532;53.084;6.352;2022-11-15T03:11:13;37.75;;;25.23;;
66628;SDS011;53532;53.084;6.352;2022-11-15T03:13:42;39.80;;;26.20;;
66628;SDS011;53532;53.084;6.352;2022-11-15T03:16:14;41.92;;;26.30;;
66628;SDS011;53532;53.084;6.352;2022-11-15T03:18:41;39.30;;;25.63;;
66628;SDS011;53532;53.084;6.352;2022-11-15T03:21:09;40.67;;;25.65;;
66628;SDS011;53532;53.084;6.352;2022-11-15T03:23:39;40.22;;;25.83;;
66628;SDS011;53532;53.084;6.352;2022-11-15T03:26:07;38.50;;;24.13;;
66628;SDS011;53532;53.084;6.352;2022-11-15T03:28:34;42.60;;;26.02;;
66628;SDS011;53532;53.084;6.352;2022-11-15T03:31:02;41.17;;;26.08;;
66628;SDS011;53532;53.084;6.352;2022-11-15T03:33:51;44.33;;;26.67;;
66628;SDS011;53532;53.084;6.352;2022-11-15T03:36:19;44.42;;;26.15;;
66628;SDS011;53532;53.084;6.352;2022-11-15T03:38:46;42.80;;;26.13;;
66628;SDS011;53532;53.084;6.352;2022-11-15T03:41:14;44.13;;;26.98;;
66628;SDS011;53532;53.084;6.352;2022-11-15T03:43:43;45.55;;;26.40;;
66628;SDS011;53532;53.084;6.352;2022-11-15T03:46:13;47.92;;;27.42;;
66628;SDS011;53532;53.084;6.352;2022-11-15T03:48:41;44.80;;;26.42;;
66628;SDS011;53532;53.084;6.352;2022-11-15T03:51:10;46.78;;;26.90;;
66628;SDS011;53532;53.084;6.352;2022-11-15T03:53:37;49.15;;;26.85;;
66628;SDS011;53532;53.084;6.352;2022-11-15T03:56:03;49.53;;;26.95;;
66628;SDS011;53532;53.084;6.352;2022-11-15T03:58:29;47.90;;;26.85;;
66628;SDS011;53532;53.084;6.352;2022-11-15T04:00:55;44.67;;;26.52;;
66628;SDS011;53532;53.084;6.352;2022-11-15T04:03:21;44.65;;;25.90;;
66628;SDS011;53532;53.084;6.352;2022-11-15T04:05:47;48.70;;;27.25;;
66628;SDS011;53532;53.084;6.352;2022-11-15T04:08:15;51.20;;;27.10;;
66628;SDS011;53532;53.084;6.352;2022-11-15T04:10:41;44.97;;;26.15;;
66628;SDS011;53532;53.084;6.352;2022-11-15T04:13:07;48.13;;;26.73;;
66628;SDS011;53532;53.084;6.352;2022-11-15T04:15:33;52.72;;;26.13;;
66628;SDS011;53532;53.084;6.352;2022-11-15T04:17:59;54.05;;;28.08;;
66628;SDS011;53532;53.084;6.352;2022-11-15T04:20:26;50.03;;;27.25;;
66628;SDS011;53532;53.084;6.352;2022-11-15T04:23:13;56.60;;;28.23;;
66628;SDS011;53532;53.084;6.352;2022-11-15T04:25:59;53.05;;;27.40;;
66628;SDS011;53532;53.084;6.352;2022-11-15T04:28:26;60.65;;;28.83;;
66628;SDS011;53532;53.084;6.352;2022-11-15T04:30:52;57.28;;;28.45;;
66628;SDS011;53532;53.084;6.352;2022-11-15T04:33:19;61.13;;;29.15;;
66628;SDS011;53532;53.084;6.352;2022-11-15T04:35:46;52.38;;;27.65;;
66628;SDS011;53532;53.084;6.352;2022-11-15T04:38:32;62.35;;;29.60;;
66628;SDS011;53532;53.084;6.352;2022-11-15T04:40:59;62.80;;;29.30;;
66628;SDS011;53532;53.084;6.352;2022-11-15T04:43:26;64.90;;;29.73;;
66628;SDS011;53532;53.084;6.352;2022-11-15T04:45:52;65.28;;;30.23;;
66628;SDS011;53532;53.084;6.352;2022-11-15T04:48:18;62.13;;;30.40;;
66628;SDS011;53532;53.084;6.352;2022-11-15T04:50:44;64.80;;;30.63;;
66628;SDS011;53532;53.084;6.352;2022-11-15T04:53:10;66.80;;;30.92;;
66628;SDS011;53532;53.084;6.352;2022-11-15T04:55:36;70.38;;;31.05;;
66628;SDS011;53532;53.084;6.352;2022-11-15T04:58:03;66.22;;;31.55;;
66628;SDS011;53532;53.084;6.352;2022-11-15T05:00:29;67.78;;;30.77;;
66628;SDS011;53532;53.084;6.352;2022-11-15T05:02:56;70.32;;;31.60;;
66628;SDS011;53532;53.084;6.352;2022-11-15T05:05:40;73.03;;;32.47;;
66628;SDS011;53532;53.084;6.352;2022-11-15T05:08:07;73.68;;;32.20;;
66628;SDS011;53532;53.084;6.352;2022-11-15T05:10:33;83.95;;;33.72;;
66628;SDS011;53532;53.084;6.352;2022-11-15T05:12:59;87.18;;;34.40;;
66628;SDS011;53532;53.084;6.352;2022-11-15T05:15:27;88.47;;;34.72;;
66628;SDS011;53532;53.084;6.352;2022-11-15T05:17:56;79.82;;;33.88;;
66628;SDS011;53532;53.084;6.352;2022-11-15T05:20:22;86.78;;;35.10;;
66628;SDS011;53532;53.084;6.352;2022-11-15T05:22:49;78.30;;;33.80;;
66628;SDS011;53532;53.084;6.352;2022-11-15T05:25:15;91.38;;;35.45;;
66628;SDS011;53532;53.084;6.352;2022-11-15T05:27:41;95.10;;;36.60;;
66628;SDS011;53532;53.084;6.352;2022-11-15T05:30:07;83.90;;;35.60;;
66628;SDS011;53532;53.084;6.352;2022-11-15T05:32:35;103.78;;;38.72;;
66628;SDS011;53532;53.084;6.352;2022-11-15T05:35:01;102.63;;;38.38;;
66628;SDS011;53532;53.084;6.352;2022-11-15T05:37:28;112.93;;;39.78;;
66628;SDS011;53532;53.084;6.352;2022-11-15T05:39:54;111.38;;;38.67;;
66628;SDS011;53532;53.084;6.352;2022-11-15T05:42:21;105.78;;;38.75;;
66628;SDS011;53532;53.084;6.352;2022-11-15T05:44:47;105.20;;;40.42;;
66628;SDS011;53532;53.084;6.352;2022-11-15T05:47:15;99.93;;;39.35;;
66628;SDS011;53532;53.084;6.352;2022-11-15T05:49:44;115.85;;;40.97;;
66628;SDS011;53532;53.084;6.352;2022-11-15T05:52:11;118.60;;;42.50;;
66628;SDS011;53532;53.084;6.352;2022-11-15T05:54:38;117.57;;;42.00;;
66628;SDS011;53532;53.084;6.352;2022-11-15T05:57:04;112.60;;;42.53;;
66628;SDS011;53532;53.084;6.352;2022-11-15T05:59:30;120.00;;;42.47;;
66628;SDS011;53532;53.084;6.352;2022-11-15T06:01:58;116.97;;;42.50;;
66628;SDS011;53532;53.084;6.352;2022-11-15T06:04:24;115.38;;;42.00;;
66628;SDS011;53532;53.084;6.352;2022-11-15T06:06:52;115.93;;;42.05;;
66628;SDS011;53532;53.084;6.352;2022-11-15T06:09:18;113.95;;;42.72;;
66628;SDS011;53532;53.084;6.352;2022-11-15T06:11:44;107.00;;;41.15;;
66628;SDS011;53532;53.084;6.352;2022-11-15T06:14:13;114.75;;;42.85;;
66628;SDS011;53532;53.084;6.352;2022-11-15T06:16:40;115.35;;;40.53;;
66628;SDS011;53532;53.084;6.352;2022-11-15T06:19:06;127.50;;;43.72;;
66628;SDS011;53532;53.084;6.352;2022-11-15T06:21:34;124.28;;;42.60;;
66628;SDS011;53532;53.084;6.352;2022-11-15T06:24:02;136.85;;;44.22;;
66628;SDS011;53532;53.084;6.352;2022-11-15T06:26:28;129.20;;;42.63;;
66628;SDS011;53532;53.084;6.352;2022-11-15T06:28:54;115.63;;;41.55;;
66628;SDS011;53532;53.084;6.352;2022-11-15T06:31:20;125.57;;;42.03;;
66628;SDS011;53532;53.084;6.352;2022-11-15T06:33:46;131.73;;;42.88;;
66628;SDS011;53532;53.084;6.352;2022-11-15T06:36:14;122.07;;;41.50;;
66628;SDS011;53532;53.084;6.352;2022-11-15T06:38:41;128.60;;;42.08;;
66628;SDS011;53532;53.084;6.352;2022-11-15T06:41:10;114.18;;;40.92;;
66628;SDS011;53532;53.084;6.352;2022-11-15T06:43:36;115.88;;;40.58;;
66628;SDS011;53532;53.084;6.352;2022-11-15T06:46:03;129.13;;;41.50;;
66628;SDS011;53532;53.084;6.352;2022-11-15T06:48:29;111.63;;;40.47;;
66628;SDS011;53532;53.084;6.352;2022-11-15T06:50:56;109.70;;;39.72;;
66628;SDS011;53532;53.084;6.352;2022-11-15T06:53:23;98.57;;;39.25;;
66628;SDS011;53532;53.084;6.352;2022-11-15T06:55:49;104.82;;;38.65;;
66628;SDS011;53532;53.084;6.352;2022-11-15T06:58:17;95.70;;;38.50;;
66628;SDS011;53532;53.084;6.352;2022-11-15T07:00:43;100.07;;;37.28;;
66628;SDS011;53532;53.084;6.352;2022-11-15T07:03:09;104.32;;;38.08;;
66628;SDS011;53532;53.084;6.352;2022-11-15T07:05:36;105.07;;;38.80;;
66628;SDS011;53532;53.084;6.352;2022-11-15T07:08:02;100.10;;;39.22;;
66628;SDS011;53532;53.084;6.352;2022-11-15T07:10:28;97.45;;;37.00;;
66628;SDS011;53532;53.084;6.352;2022-11-15T07:12:55;99.95;;;37.38;;
66628;SDS011;53532;53.084;6.352;2022-11-15T07:15:23;90.07;;;37.35;;
66628;SDS011;53532;53.084;6.352;2022-11-15T07:17:49;102.10;;;38.47;;
66628;SDS011;53532;53.084;6.352;2022-11-15T07:20:16;97.65;;;38.78;;
66628;SDS011;53532;53.084;6.352;2022-11-15T07:22:42;98.57;;;38.10;;
66628;SDS011;53532;53.084;6.352;2022-11-15T07:25:10;86.55;;;36.90;;
66628;SDS011;53532;53.084;6.352;2022-11-15T07:27:36;89.82;;;38.30;;
66628;SDS011;53532;53.084;6.352;2022-11-15T07:30:03;88.65;;;36.45;;
66628;SDS011;53532;53.084;6.352;2022-11-15T07:32:31;80.35;;;36.28;;
66628;SDS011;53532;53.084;6.352;2022-11-15T07:34:57;82.13;;;35.47;;
66628;SDS011;53532;53.084;6.352;2022-11-15T07:37:23;78.70;;;36.85;;
66628;SDS011;53532;53.084;6.352;2022-11-15T07:39:49;78.85;;;35.92;;
66628;SDS011;53532;53.084;6.352;2022-11-15T07:42:15;81.97;;;35.70;;
66628;SDS011;53532;53.084;6.352;2022-11-15T07:45:00;74.85;;;34.95;;
66628;SDS011;53532;53.084;6.352;2022-11-15T07:47:28;73.60;;;34.67;;
66628;SDS011;53532;53.084;6.352;2022-11-15T07:49:55;76.00;;;34.85;;
66628;SDS011;53532;53.084;6.352;2022-11-15T07:52:21;75.57;;;36.10;;
66628;SDS011;53532;53.084;6.352;2022-11-15T07:54:47;66.40;;;33.65;;
66628;SDS011;53532;53.084;6.352;2022-11-15T07:57:13;67.20;;;32.85;;
66628;SDS011;53532;53.084;6.352;2022-11-15T07:59:40;70.00;;;34.63;;
66628;SDS011;53532;53.084;6.352;2022-11-15T08:02:06;62.88;;;32.85;;
66628;SDS011;53532;53.084;6.352;2022-11-15T08:04:32;71.10;;;34.92;;
66628;SDS011;53532;53.084;6.352;2022-11-15T08:06:59;64.43;;;33.47;;
66628;SDS011;53532;53.084;6.352;2022-11-15T08:09:25;64.32;;;34.50;;
66628;SDS011;53532;53.084;6.352;2022-11-15T08:11:51;63.28;;;33.17;;
66628;SDS011;53532;53.084;6.352;2022-11-15T08:14:17;63.33;;;32.80;;
66628;SDS011;53532;53.084;6.352;2022-11-15T08:16:44;58.45;;;32.20;;
66628;SDS011;53532;53.084;6.352;2022-11-15T08:19:10;58.13;;;31.42;;
66628;SDS011;53532;53.084;6.352;2022-11-15T08:21:36;53.88;;;31.10;;
66628;SDS011;53532;53.084;6.352;2022-11-15T08:24:04;56.60;;;32.33;;
66628;SDS011;53532;53.084;6.352;2022-11-15T08:26:30;55.35;;;30.83;;
66628;SDS011;53532;53.084;6.352;2022-11-15T08:28:56;53.80;;;30.55;;
66628;SDS011;53532;53.084;6.352;2022-11-15T08:31:22;51.53;;;30.15;;
66628;SDS011;53532;53.084;6.352;2022-11-15T08:33:48;49.28;;;29.38;;
66628;SDS011;53532;53.084;6.352;2022-11-15T08:36:15;51.75;;;30.08;;
66628;SDS011;53532;53.084;6.352;2022-11-15T08:38:42;47.45;;;29.20;;
66628;SDS011;53532;53.084;6.352;2022-11-15T08:41:11;43.70;;;28.13;;
66628;SDS011;53532;53.084;6.352;2022-11-15T08:43:38;45.15;;;28.35;;
66628;SDS011;53532;53.084;6.352;2022-11-15T08:46:04;40.63;;;27.13;;
66628;SDS011;53532;53.084;6.352;2022-11-15T08:48:30;48.50;;;28.40;;
66628;SDS011;53532;53.084;6.352;2022-11-15T08:50:56;40.40;;;26.20;;
66628;SDS011;53532;53.084;6.352;2022-11-15T08:53:23;38.67;;;25.95;;
66628;SDS011;53532;53.084;6.352;2022-11-15T08:55:49;38.00;;;25.80;;
66628;SDS011;53532;53.084;6.352;2022-11-15T08:58:16;39.55;;;25.45;;
66628;SDS011;53532;53.084;6.352;2022-11-15T09:00:42;36.22;;;25.33;;
66628;SDS011;53532;53.084;6.352;2022-11-15T09:03:08;39.42;;;25.73;;
66628;SDS011;53532;53.084;6.352;2022-11-15T09:05:35;37.97;;;25.10;;
66628;SDS011;53532;53.084;6.352;2022-11-15T09:08:02;34.35;;;24.15;;
66628;SDS011;53532;53.084;6.352;2022-11-15T09:10:29;35.45;;;24.92;;
66628;SDS011;53532;53.084;6.352;2022-11-15T09:12:56;34.13;;;23.40;;
66628;SDS011;53532;53.084;6.352;2022-11-15T09:15:23;32.40;;;23.65;;
66628;SDS011;53532;53.084;6.352;2022-11-15T09:17:49;32.53;;;22.95;;
66628;SDS011;53532;53.084;6.352;2022-11-15T09:20:16;34.67;;;24.35;;
66628;SDS011;53532;53.084;6.352;2022-11-15T09:22:42;33.70;;;23.38;;
66628;SDS011;53532;53.084;6.352;2022-11-15T09:25:08;31.80;;;23.08;;
66628;SDS011;53532;53.084;6.352;2022-11-15T09:27:34;31.38;;;22.83;;
66628;SDS011;53532;53.084;6.352;2022-11-15T09:30:01;32.17;;;22.30;;
66628;SDS011;53532;53.084;6.352;2022-11-15T09:32:29;29.73;;;21.20;;
66628;SDS011;53532;53.084;6.352;2022-11-15T09:34:55;30.52;;;21.63;;
66628;SDS011;53532;53.084;6.352;2022-11-15T09:37:21;28.73;;;21.00;;
66628;SDS011;53532;53.084;6.352;2022-11-15T09:39:47;29.58;;;21.23;;
66628;SDS011;53532;53.084;6.352;2022-11-15T09:42:25;31.98;;;21.45;;
66628;SDS011;53532;53.084;6.352;2022-11-15T09:44:58;29.20;;;20.45;;
66628;SDS011;53532;53.084;6.352;2022-11-15T09:50:10;27.73;;;20.48;;
66628;SDS011;53532;53.084;6.352;2022-11-15T09:52:36;28.08;;;20.80;;
66628;SDS011;53532;53.084;6.352;2022-11-15T09:55:07;27.45;;;20.85;;
66628;SDS011;53532;53.084;6.352;2022-11-15T09:57:37;28.50;;;20.23;;
66628;SDS011;53532;53.084;6.352;2022-11-15T10:00:08;28.45;;;20.35;;
66628;SDS011;53532;53.084;6.352;2022-11-15T10:02:40;28.60;;;20.58;;
66628;SDS011;53532;53.084;6.352;2022-11-15T10:05:11;27.10;;;19.90;;
66628;SDS011;53532;53.084;6.352;2022-11-15T10:07:40;28.30;;;20.17;;
66628;SDS011;53532;53.084;6.352;2022-11-15T10:10:11;29.90;;;20.60;;
66628;SDS011;53532;53.084;6.352;2022-11-15T10:12:41;25.00;;;19.45;;
66628;SDS011;53532;53.084;6.352;2022-11-15T10:15:11;24.27;;;18.73;;
66628;SDS011;53532;53.084;6.352;2022-11-15T10:17:54;26.13;;;20.30;;
66628;SDS011;53532;53.084;6.352;2022-11-15T10:20:26;25.08;;;19.75;;
66628;SDS011;53532;53.084;6.352;2022-11-15T10:22:53;25.55;;;19.08;;
66628;SDS011;53532;53.084;6.352;2022-11-15T10:25:24;27.27;;;19.13;;
66628;SDS011;53532;53.084;6.352;2022-11-15T10:27:55;27.45;;;19.67;;
66628;SDS011;53532;53.084;6.352;2022-11-15T10:30:30;24.42;;;19.00;;
66628;SDS011;53532;53.084;6.352;2022-11-15T10:32:56;22.77;;;18.00;;
66628;SDS011;53532;53.084;6.352;2022-11-15T10:35:25;24.73;;;18.02;;
66628;SDS011;53532;53.084;6.352;2022-11-15T10:37:53;24.67;;;17.73;;
66628;SDS011;53532;53.084;6.352;2022-11-15T10:40:30;25.08;;;16.60;;
66628;SDS011;53532;53.084;6.352;2022-11-15T10:43:03;23.02;;;17.98;;
66628;SDS011;53532;53.084;6.352;2022-11-15T10:45:30;23.65;;;16.23;;
66628;SDS011;53532;53.084;6.352;2022-11-15T10:48:18;19.77;;;15.23;;
66628;SDS011;53532;53.084;6.352;2022-11-15T10:50:45;18.70;;;14.43;;
66628;SDS011;53532;53.084;6.352;2022-11-15T10:53:15;22.27;;;15.52;;
66628;SDS011;53532;53.084;6.352;2022-11-15T10:55:42;19.33;;;14.77;;
66628;SDS011;53532;53.084;6.352;2022-11-15T10:58:19;18.63;;;14.80;;
66628;SDS011;53532;53.084;6.352;2022-11-15T11:00:46;16.98;;;13.60;;
66628;SDS011;53532;53.084;6.352;2022-11-15T11:03:23;18.15;;;14.48;;
66628;SDS011;53532;53.084;6.352;2022-11-15T11:06:02;18.60;;;14.40;;
66628;SDS011;53532;53.084;6.352;2022-11-15T11:08:30;18.95;;;14.13;;
66628;SDS011;53532;53.084;6.352;2022-11-15T11:10:57;19.55;;;14.50;;
66628;SDS011;53532;53.084;6.352;2022-11-15T11:13:25;18.85;;;13.32;;
66628;SDS011;53532;53.084;6.352;2022-11-15T11:15:52;19.05;;;13.88;;
66628;SDS011;53532;53.084;6.352;2022-11-15T11:18:22;17.20;;;11.73;;
66628;SDS011;53532;53.084;6.352;2022-11-15T11:20:53;17.05;;;11.90;;
66628;SDS011;53532;53.084;6.352;2022-11-15T11:23:29;15.05;;;11.57;;
66628;SDS011;53532;53.084;6.352;2022-11-15T11:26:01;13.00;;;9.45;;
66628;SDS011;53532;53.084;6.352;2022-11-15T11:28:37;13.60;;;9.93;;
66628;SDS011;53532;53.084;6.352;2022-11-15T11:31:08;13.93;;;9.15;;
66628;SDS011;53532;53.084;6.352;2022-11-15T11:33:39;12.40;;;7.68;;
66628;SDS011;53532;53.084;6.352;2022-11-15T11:36:11;12.57;;;7.15;;
66628;SDS011;53532;53.084;6.352;2022-11-15T11:38:45;13.15;;;7.13;;
66628;SDS011;53532;53.084;6.352;2022-11-15T11:41:18;12.93;;;6.88;;
66628;SDS011;53532;53.084;6.352;2022-11-15T11:43:49;9.40;;;6.10;;
66628;SDS011;53532;53.084;6.352;2022-11-15T11:46:32;11.10;;;6.80;;
66628;SDS011;53532;53.084;6.352;2022-11-15T11:49:03;10.35;;;5.97;;
66628;SDS011;53532;53.084;6.352;2022-11-15T11:51:32;9.32;;;5.22;;
66628;SDS011;53532;53.084;6.352;2022-11-15T11:54:01;9.40;;;5.43;;
66628;SDS011;53532;53.084;6.352;2022-11-15T11:56:31;8.10;;;4.80;;
66628;SDS011;53532;53.084;6.352;2022-11-15T11:59:00;9.13;;;5.15;;
66628;SDS011;53532;53.084;6.352;2022-11-15T12:01:28;10.45;;;6.05;;
66628;SDS011;53532;53.084;6.352;2022-11-15T12:03:57;11.23;;;5.93;;
66628;SDS011;53532;53.084;6.352;2022-11-15T12:06:27;10.35;;;5.35;;
66628;SDS011;53532;53.084;6.352;2022-11-15T12:08:56;9.55;;;4.43;;
66628;SDS011;53532;53.084;6.352;2022-11-15T12:11:26;7.43;;;4.10;;
66628;SDS011;53532;53.084;6.352;2022-11-15T12:13:56;7.13;;;3.80;;
66628;SDS011;53532;53.084;6.352;2022-11-15T12:16:26;8.13;;;4.30;;
66628;SDS011;53532;53.084;6.352;2022-11-15T12:18:53;7.95;;;4.40;;
66628;SDS011;53532;53.084;6.352;2022-11-15T12:21:21;10.85;;;4.35;;
66628;SDS011;53532;53.084;6.352;2022-11-15T12:23:54;8.60;;;4.53;;
66628;SDS011;53532;53.084;6.352;2022-11-15T12:26:24;10.07;;;4.55;;
66628;SDS011;53532;53.084;6.352;2022-11-15T12:28:52;9.93;;;4.85;;
66628;SDS011;53532;53.084;6.352;2022-11-15T12:31:22;9.65;;;4.70;;
66628;SDS011;53532;53.084;6.352;2022-11-15T12:33:50;8.15;;;5.25;;
66628;SDS011;53532;53.084;6.352;2022-11-15T12:39:04;8.48;;;4.57;;
66628;SDS011;53532;53.084;6.352;2022-11-15T12:41:31;7.82;;;4.53;;
66628;SDS011;53532;53.084;6.352;2022-11-15T12:43:58;8.00;;;4.45;;
66628;SDS011;53532;53.084;6.352;2022-11-15T12:49:41;8.57;;;4.40;;
66628;SDS011;53532;53.084;6.352;2022-11-15T12:52:08;8.02;;;4.43;;
66628;SDS011;53532;53.084;6.352;2022-11-15T12:54:51;6.60;;;4.15;;
66628;SDS011;53532;53.084;6.352;2022-11-15T13:08:45;9.02;;;3.70;;
66628;SDS011;53532;53.084;6.352;2022-11-15T13:14:02;7.43;;;3.10;;
66628;SDS011;53532;53.084;6.352;2022-11-15T13:16:48;6.07;;;3.13;;
66628;SDS011;53532;53.084;6.352;2022-11-15T13:19:15;6.93;;;3.40;;
66628;SDS011;53532;53.084;6.352;2022-11-15T13:21:47;6.95;;;3.20;;
66628;SDS011;53532;53.084;6.352;2022-11-15T13:24:33;6.20;;;3.08;;
66628;SDS011;53532;53.084;6.352;2022-11-15T13:29:29;6.43;;;3.00;;
66628;SDS011;53532;53.084;6.352;2022-11-15T13:31:58;5.43;;;3.10;;
66628;SDS011;53532;53.084;6.352;2022-11-15T13:34:26;5.95;;;2.92;;
66628;SDS011;53532;53.084;6.352;2022-11-15T13:36:53;6.45;;;3.17;;
66628;SDS011;53532;53.084;6.352;2022-11-15T13:39:27;5.97;;;3.00;;
66628;SDS011;53532;53.084;6.352;2022-11-15T13:41:55;5.43;;;2.70;;
66628;SDS011;53532;53.084;6.352;2022-11-15T13:44:22;7.38;;;3.33;;
66628;SDS011;53532;53.084;6.352;2022-11-15T13:46:48;8.45;;;3.33;;
66628;SDS011;53532;53.084;6.352;2022-11-15T13:49:14;5.63;;;2.97;;
66628;SDS011;53532;53.084;6.352;2022-11-15T13:51:42;8.07;;;3.45;;
66628;SDS011;53532;53.084;6.352;2022-11-15T13:54:13;6.38;;;3.17;;
66628;SDS011;53532;53.084;6.352;2022-11-15T13:56:40;7.55;;;3.28;;
66628;SDS011;53532;53.084;6.352;2022-11-15T13:59:10;6.45;;;3.80;;
66628;SDS011;53532;53.084;6.352;2022-11-15T14:01:36;7.68;;;3.30;;
66628;SDS011;53532;53.084;6.352;2022-11-15T14:04:02;5.07;;;3.20;;
66628;SDS011;53532;53.084;6.352;2022-11-15T14:06:29;5.03;;;2.63;;
66628;SDS011;53532;53.084;6.352;2022-11-15T14:09:18;6.90;;;3.00;;
66628;SDS011;53532;53.084;6.352;2022-11-15T14:11:51;6.10;;;2.65;;
66628;SDS011;53532;53.084;6.352;2022-11-15T14:14:19;3.88;;;2.30;;
66628;SDS011;53532;53.084;6.352;2022-11-15T14:16:47;4.88;;;2.40;;
66628;SDS011;53532;53.084;6.352;2022-11-15T14:19:33;5.80;;;2.80;;
66628;SDS011;53532;53.084;6.352;2022-11-15T14:22:09;4.60;;;2.20;;
66628;SDS011;53532;53.084;6.352;2022-11-15T14:24:36;6.07;;;2.40;;
66628;SDS011;53532;53.084;6.352;2022-11-15T14:27:15;6.18;;;2.78;;
66628;SDS011;53532;53.084;6.352;2022-11-15T14:29:42;5.28;;;2.35;;
66628;SDS011;53532;53.084;6.352;2022-11-15T14:32:12;6.32;;;2.50;;
66628;SDS011;53532;53.084;6.352;2022-11-15T14:34:38;5.50;;;2.40;;
66628;SDS011;53532;53.084;6.352;2022-11-15T14:37:04;5.15;;;2.35;;
66628;SDS011;53532;53.084;6.352;2022-11-15T14:39:30;5.13;;;2.50;;
66628;SDS011;53532;53.084;6.352;2022-11-15T14:41:56;5.00;;;2.50;;
66628;SDS011;53532;53.084;6.352;2022-11-15T14:44:22;6.28;;;2.65;;
66628;SDS011;53532;53.084;6.352;2022-11-15T14:46:50;4.65;;;2.80;;
66628;SDS011;53532;53.084;6.352;2022-11-15T14:49:16;7.53;;;2.83;;
66628;SDS011;53532;53.084;6.352;2022-11-15T14:51:42;6.78;;;2.50;;
66628;SDS011;53532;53.084;6.352;2022-11-15T14:54:09;4.63;;;2.00;;
66628;SDS011;53532;53.084;6.352;2022-11-15T14:56:35;3.80;;;1.60;;
66628;SDS011;53532;53.084;6.352;2022-11-15T14:59:01;4.20;;;1.70;;
66628;SDS011;53532;53.084;6.352;2022-11-15T15:01:27;5.40;;;2.00;;
66628;SDS011;53532;53.084;6.352;2022-11-15T15:03:55;4.45;;;1.95;;
66628;SDS011;53532;53.084;6.352;2022-11-15T15:06:23;5.38;;;2.00;;